sensor_id;sensor_type;location;lat;lon;timestamp;P1;durP1;ratioP1;P2;durP2;ratioP2
13897;SDS011;7019;50.766;4.474;2023-06-22T00:01:20;3.97;;;2.87;;
13897;SDS011;7019;50.766;4.474;2023-06-22T00:03:47;4.00;;;3.60;;
13897;SDS011;7019;50.766;4.474;2023-06-22T00:06:14;4.27;;;2.57;;
13897;SDS011;7019;50.766;4.474;2023-06-22T00:08:41;3.70;;;3.30;;
13897;SDS011;7019;50.766;4.474;2023-06-22T00:11:08;3.97;;;3.23;;
13897;SDS011;7019;50.766;4.474;2023-06-22T00:13:37;3.10;;;2.57;;
13897;SDS011;7019;50.766;4.474;2023-06-22T00:16:04;3.87;;;2.83;;
13897;SDS011;7019;50.766;4.474;2023-06-22T00:18:31;3.77;;;2.93;;
13897;SDS011;7019;50.766;4.474;2023-06-22T00:20:58;4.77;;;3.33;;
13897;SDS011;7019;50.766;4.474;2023-06-22T00:23:26;3.80;;;3.30;;
13897;SDS011;7019;50.766;4.474;2023-06-22T00:25:53;4.20;;;2.83;;
13897;SDS011;7019;50.766;4.474;2023-06-22T00:28:20;4.40;;;2.97;;
13897;SDS011;7019;50.766;4.474;2023-06-22T00:30:49;4.50;;;3.27;;
13897;SDS011;7019;50.766;4.474;2023-06-22T00:33:16;4.40;;;2.90;;
13897;SDS011;7019;50.766;4.474;2023-06-22T00:35:43;5.37;;;3.20;;
13897;SDS011;7019;50.766;4.474;2023-06-22T00:38:10;4.00;;;2.43;;
13897;SDS011;7019;50.766;4.474;2023-06-22T00:40:38;5.77;;;3.60;;
13897;SDS011;7019;50.766;4.474;2023-06-22T00:43:05;4.53;;;3.30;;
13897;SDS011;7019;50.766;4.474;2023-06-22T00:45:32;5.60;;;3.83;;
13897;SDS011;7019;50.766;4.474;2023-06-22T00:48:01;4.03;;;3.07;;
13897;SDS011;7019;50.766;4.474;2023-06-22T00:50:30;3.70;;;2.90;;
13897;SDS011;7019;50.766;4.474;2023-06-22T00:53:00;5.83;;;4.00;;
13897;SDS011;7019;50.766;4.474;2023-06-22T00:55:33;5.43;;;2.80;;
13897;SDS011;7019;50.766;4.474;2023-06-22T00:58:02;5.17;;;3.83;;
13897;SDS011;7019;50.766;4.474;2023-06-22T01:00:33;4.17;;;3.63;;
13897;SDS011;7019;50.766;4.474;2023-06-22T01:03:01;4.93;;;2.93;;
13897;SDS011;7019;50.766;4.474;2023-06-22T01:05:33;3.83;;;3.43;;
13897;SDS011;7019;50.766;4.474;2023-06-22T01:08:05;4.10;;;3.20;;
13897;SDS011;7019;50.766;4.474;2023-06-22T01:10:39;7.47;;;3.63;;
13897;SDS011;7019;50.766;4.474;2023-06-22T01:13:16;4.30;;;3.90;;
13897;SDS011;7019;50.766;4.474;2023-06-22T01:15:53;4.73;;;4.00;;
13897;SDS011;7019;50.766;4.474;2023-06-22T01:18:28;3.93;;;3.50;;
13897;SDS011;7019;50.766;4.474;2023-06-22T01:20:57;4.40;;;2.97;;
13897;SDS011;7019;50.766;4.474;2023-06-22T01:23:29;4.93;;;3.87;;
13897;SDS011;7019;50.766;4.474;2023-06-22T01:26:08;4.70;;;2.97;;
13897;SDS011;7019;50.766;4.474;2023-06-22T01:28:46;4.90;;;3.60;;
13897;SDS011;7019;50.766;4.474;2023-06-22T01:31:16;7.10;;;3.80;;
13897;SDS011;7019;50.766;4.474;2023-06-22T01:33:46;3.73;;;3.00;;
13897;SDS011;7019;50.766;4.474;2023-06-22T01:36:16;4.87;;;3.33;;
13897;SDS011;7019;50.766;4.474;2023-06-22T01:38:44;5.23;;;3.90;;
13897;SDS011;7019;50.766;4.474;2023-06-22T01:41:12;3.70;;;2.80;;
13897;SDS011;7019;50.766;4.474;2023-06-22T01:43:39;4.17;;;3.20;;
13897;SDS011;7019;50.766;4.474;2023-06-22T01:46:09;3.77;;;3.37;;
13897;SDS011;7019;50.766;4.474;2023-06-22T01:48:37;6.77;;;3.70;;
13897;SDS011;7019;50.766;4.474;2023-06-22T01:51:05;4.87;;;3.10;;
13897;SDS011;7019;50.766;4.474;2023-06-22T01:53:32;5.40;;;3.27;;
13897;SDS011;7019;50.766;4.474;2023-06-22T01:55:59;4.50;;;3.47;;
13897;SDS011;7019;50.766;4.474;2023-06-22T01:58:27;4.13;;;3.00;;
13897;SDS011;7019;50.766;4.474;2023-06-22T02:00:56;3.53;;;3.03;;
13897;SDS011;7019;50.766;4.474;2023-06-22T02:03:31;5.30;;;3.20;;
13897;SDS011;7019;50.766;4.474;2023-06-22T02:06:03;7.13;;;3.30;;
13897;SDS011;7019;50.766;4.474;2023-06-22T02:08:35;5.10;;;3.20;;
13897;SDS011;7019;50.766;4.474;2023-06-22T02:11:06;6.77;;;3.53;;
13897;SDS011;7019;50.766;4.474;2023-06-22T02:13:36;4.40;;;3.40;;
13897;SDS011;7019;50.766;4.474;2023-06-22T02:16:07;4.13;;;3.07;;
13897;SDS011;7019;50.766;4.474;2023-06-22T02:18:37;5.07;;;3.40;;
13897;SDS011;7019;50.766;4.474;2023-06-22T02:21:05;4.97;;;3.73;;
13897;SDS011;7019;50.766;4.474;2023-06-22T02:23:33;6.50;;;3.93;;
13897;SDS011;7019;50.766;4.474;2023-06-22T02:26:00;6.60;;;3.60;;
13897;SDS011;7019;50.766;4.474;2023-06-22T02:28:28;5.87;;;3.30;;
13897;SDS011;7019;50.766;4.474;2023-06-22T02:30:55;4.00;;;2.90;;
13897;SDS011;7019;50.766;4.474;2023-06-22T02:33:22;3.60;;;3.10;;
13897;SDS011;7019;50.766;4.474;2023-06-22T02:35:51;3.83;;;3.43;;
13897;SDS011;7019;50.766;4.474;2023-06-22T02:38:18;4.77;;;3.03;;
13897;SDS011;7019;50.766;4.474;2023-06-22T02:40:45;3.60;;;2.73;;
13897;SDS011;7019;50.766;4.474;2023-06-22T02:43:12;5.90;;;2.73;;
13897;SDS011;7019;50.766;4.474;2023-06-22T02:45:39;2.80;;;2.10;;
13897;SDS011;7019;50.766;4.474;2023-06-22T02:48:07;4.77;;;2.60;;
13897;SDS011;7019;50.766;4.474;2023-06-22T02:50:34;3.03;;;2.73;;
13897;SDS011;7019;50.766;4.474;2023-06-22T02:53:02;3.10;;;2.27;;
13897;SDS011;7019;50.766;4.474;2023-06-22T02:55:29;3.93;;;2.97;;
13897;SDS011;7019;50.766;4.474;2023-06-22T02:57:56;3.50;;;2.73;;
13897;SDS011;7019;50.766;4.474;2023-06-22T03:00:25;3.00;;;2.50;;
13897;SDS011;7019;50.766;4.474;2023-06-22T03:02:55;3.67;;;2.67;;
13897;SDS011;7019;50.766;4.474;2023-06-22T03:05:23;5.00;;;2.90;;
13897;SDS011;7019;50.766;4.474;2023-06-22T03:07:51;5.33;;;2.83;;
13897;SDS011;7019;50.766;4.474;2023-06-22T03:10:19;4.27;;;3.30;;
13897;SDS011;7019;50.766;4.474;2023-06-22T03:12:46;3.27;;;2.97;;
13897;SDS011;7019;50.766;4.474;2023-06-22T03:15:13;5.30;;;3.00;;
13897;SDS011;7019;50.766;4.474;2023-06-22T03:17:42;3.13;;;2.83;;
13897;SDS011;7019;50.766;4.474;2023-06-22T03:20:09;4.67;;;3.00;;
13897;SDS011;7019;50.766;4.474;2023-06-22T03:22:37;7.67;;;3.57;;
13897;SDS011;7019;50.766;4.474;2023-06-22T03:25:06;3.23;;;2.70;;
13897;SDS011;7019;50.766;4.474;2023-06-22T03:27:39;3.40;;;3.03;;
13897;SDS011;7019;50.766;4.474;2023-06-22T03:30:09;3.73;;;2.50;;
13897;SDS011;7019;50.766;4.474;2023-06-22T03:32:37;5.83;;;3.00;;
13897;SDS011;7019;50.766;4.474;2023-06-22T03:35:05;4.57;;;3.03;;
13897;SDS011;7019;50.766;4.474;2023-06-22T03:37:33;5.00;;;3.10;;
13897;SDS011;7019;50.766;4.474;2023-06-22T03:40:00;4.47;;;3.27;;
13897;SDS011;7019;50.766;4.474;2023-06-22T03:42:27;5.03;;;2.63;;
13897;SDS011;7019;50.766;4.474;2023-06-22T03:44:56;3.87;;;2.43;;
13897;SDS011;7019;50.766;4.474;2023-06-22T03:47:23;4.20;;;2.50;;
13897;SDS011;7019;50.766;4.474;2023-06-22T03:49:50;4.67;;;2.93;;
13897;SDS011;7019;50.766;4.474;2023-06-22T03:52:20;2.90;;;2.40;;
13897;SDS011;7019;50.766;4.474;2023-06-22T03:54:47;6.37;;;3.47;;
13897;SDS011;7019;50.766;4.474;2023-06-22T03:57:14;5.17;;;3.50;;
13897;SDS011;7019;50.766;4.474;2023-06-22T03:59:41;4.90;;;3.27;;
13897;SDS011;7019;50.766;4.474;2023-06-22T04:02:09;9.03;;;5.27;;
13897;SDS011;7019;50.766;4.474;2023-06-22T04:04:36;10.57;;;5.40;;
13897;SDS011;7019;50.766;4.474;2023-06-22T04:07:04;10.43;;;6.03;;
13897;SDS011;7019;50.766;4.474;2023-06-22T04:09:31;12.83;;;7.30;;
13897;SDS011;7019;50.766;4.474;2023-06-22T04:11:58;12.93;;;6.60;;
13897;SDS011;7019;50.766;4.474;2023-06-22T04:14:25;11.40;;;7.67;;
13897;SDS011;7019;50.766;4.474;2023-06-22T04:16:52;10.40;;;7.47;;
13897;SDS011;7019;50.766;4.474;2023-06-22T04:19:21;12.27;;;6.87;;
13897;SDS011;7019;50.766;4.474;2023-06-22T04:21:48;11.70;;;6.87;;
13897;SDS011;7019;50.766;4.474;2023-06-22T04:24:15;14.70;;;7.40;;
13897;SDS011;7019;50.766;4.474;2023-06-22T04:26:42;12.83;;;7.17;;
13897;SDS011;7019;50.766;4.474;2023-06-22T04:29:10;15.50;;;9.03;;
13897;SDS011;7019;50.766;4.474;2023-06-22T04:31:37;14.40;;;8.40;;
13897;SDS011;7019;50.766;4.474;2023-06-22T04:34:05;12.13;;;7.97;;
13897;SDS011;7019;50.766;4.474;2023-06-22T04:36:38;9.57;;;6.17;;
13897;SDS011;7019;50.766;4.474;2023-06-22T04:39:06;10.23;;;6.13;;
13897;SDS011;7019;50.766;4.474;2023-06-22T04:41:35;8.17;;;5.33;;
13897;SDS011;7019;50.766;4.474;2023-06-22T04:44:08;9.03;;;5.93;;
13897;SDS011;7019;50.766;4.474;2023-06-22T04:46:36;8.73;;;5.37;;
13897;SDS011;7019;50.766;4.474;2023-06-22T04:49:07;11.60;;;7.23;;
13897;SDS011;7019;50.766;4.474;2023-06-22T04:51:41;10.73;;;7.97;;
13897;SDS011;7019;50.766;4.474;2023-06-22T04:54:09;10.50;;;7.07;;
13897;SDS011;7019;50.766;4.474;2023-06-22T04:56:36;7.53;;;6.67;;
13897;SDS011;7019;50.766;4.474;2023-06-22T04:59:05;10.37;;;6.57;;
13897;SDS011;7019;50.766;4.474;2023-06-22T05:01:33;11.20;;;6.47;;
13897;SDS011;7019;50.766;4.474;2023-06-22T05:04:01;8.80;;;5.70;;
13897;SDS011;7019;50.766;4.474;2023-06-22T05:06:30;7.30;;;4.90;;
13897;SDS011;7019;50.766;4.474;2023-06-22T05:08:58;9.00;;;6.07;;
13897;SDS011;7019;50.766;4.474;2023-06-22T05:11:26;7.37;;;5.23;;
13897;SDS011;7019;50.766;4.474;2023-06-22T05:13:54;7.93;;;5.63;;
13897;SDS011;7019;50.766;4.474;2023-06-22T05:16:22;9.50;;;6.70;;
13897;SDS011;7019;50.766;4.474;2023-06-22T05:18:54;8.47;;;5.77;;
13897;SDS011;7019;50.766;4.474;2023-06-22T05:21:21;10.67;;;7.77;;
13897;SDS011;7019;50.766;4.474;2023-06-22T05:23:49;6.80;;;5.70;;
13897;SDS011;7019;50.766;4.474;2023-06-22T05:26:18;10.80;;;8.10;;
13897;SDS011;7019;50.766;4.474;2023-06-22T05:28:46;10.67;;;7.67;;
13897;SDS011;7019;50.766;4.474;2023-06-22T05:31:14;11.20;;;7.27;;
13897;SDS011;7019;50.766;4.474;2023-06-22T05:33:43;9.20;;;7.53;;
13897;SDS011;7019;50.766;4.474;2023-06-22T05:36:10;9.33;;;7.40;;
13897;SDS011;7019;50.766;4.474;2023-06-22T05:38:37;16.20;;;8.37;;
13897;SDS011;7019;50.766;4.474;2023-06-22T05:41:05;9.37;;;7.53;;
13897;SDS011;7019;50.766;4.474;2023-06-22T05:43:34;12.43;;;8.10;;
13897;SDS011;7019;50.766;4.474;2023-06-22T05:46:01;10.70;;;9.43;;
13897;SDS011;7019;50.766;4.474;2023-06-22T05:48:28;11.47;;;7.17;;
13897;SDS011;7019;50.766;4.474;2023-06-22T05:50:55;12.10;;;9.60;;
13897;SDS011;7019;50.766;4.474;2023-06-22T05:53:23;9.30;;;7.60;;
13897;SDS011;7019;50.766;4.474;2023-06-22T05:55:50;11.47;;;7.80;;
13897;SDS011;7019;50.766;4.474;2023-06-22T05:58:17;10.27;;;8.23;;
13897;SDS011;7019;50.766;4.474;2023-06-22T06:00:45;12.90;;;10.70;;
13897;SDS011;7019;50.766;4.474;2023-06-22T06:03:13;10.77;;;9.00;;
13897;SDS011;7019;50.766;4.474;2023-06-22T06:05:42;14.07;;;10.10;;
13897;SDS011;7019;50.766;4.474;2023-06-22T06:08:10;14.83;;;11.50;;
13897;SDS011;7019;50.766;4.474;2023-06-22T06:10:37;16.47;;;12.37;;
13897;SDS011;7019;50.766;4.474;2023-06-22T06:13:04;19.40;;;14.90;;
13897;SDS011;7019;50.766;4.474;2023-06-22T06:15:32;18.63;;;15.43;;
13897;SDS011;7019;50.766;4.474;2023-06-22T06:18:02;19.10;;;14.63;;
13897;SDS011;7019;50.766;4.474;2023-06-22T06:20:30;14.40;;;12.57;;
13897;SDS011;7019;50.766;4.474;2023-06-22T06:22:58;18.40;;;13.90;;
13897;SDS011;7019;50.766;4.474;2023-06-22T06:25:25;17.97;;;13.67;;
13897;SDS011;7019;50.766;4.474;2023-06-22T06:27:52;21.67;;;15.10;;
13897;SDS011;7019;50.766;4.474;2023-06-22T06:30:20;17.57;;;14.87;;
13897;SDS011;7019;50.766;4.474;2023-06-22T06:32:48;20.23;;;14.57;;
13897;SDS011;7019;50.766;4.474;2023-06-22T06:35:17;14.03;;;12.53;;
13897;SDS011;7019;50.766;4.474;2023-06-22T06:37:45;16.67;;;12.87;;
13897;SDS011;7019;50.766;4.474;2023-06-22T06:40:14;15.23;;;13.63;;
13897;SDS011;7019;50.766;4.474;2023-06-22T06:42:43;17.90;;;13.27;;
13897;SDS011;7019;50.766;4.474;2023-06-22T06:45:11;17.07;;;13.43;;
13897;SDS011;7019;50.766;4.474;2023-06-22T06:47:39;17.57;;;11.57;;
13897;SDS011;7019;50.766;4.474;2023-06-22T06:50:06;15.70;;;12.90;;
13897;SDS011;7019;50.766;4.474;2023-06-22T06:52:36;17.27;;;13.07;;
13897;SDS011;7019;50.766;4.474;2023-06-22T06:55:03;14.97;;;11.50;;
13897;SDS011;7019;50.766;4.474;2023-06-22T06:57:33;12.17;;;10.43;;
13897;SDS011;7019;50.766;4.474;2023-06-22T07:00:02;14.47;;;10.63;;
13897;SDS011;7019;50.766;4.474;2023-06-22T07:02:35;13.73;;;11.30;;
13897;SDS011;7019;50.766;4.474;2023-06-22T07:05:02;14.70;;;11.40;;
13897;SDS011;7019;50.766;4.474;2023-06-22T07:07:29;14.00;;;10.43;;
13897;SDS011;7019;50.766;4.474;2023-06-22T07:09:58;15.17;;;11.10;;
13897;SDS011;7019;50.766;4.474;2023-06-22T07:12:25;11.63;;;10.43;;
13897;SDS011;7019;50.766;4.474;2023-06-22T07:14:52;13.80;;;10.10;;
13897;SDS011;7019;50.766;4.474;2023-06-22T07:17:19;16.80;;;11.23;;
13897;SDS011;7019;50.766;4.474;2023-06-22T07:19:46;15.13;;;11.13;;
13897;SDS011;7019;50.766;4.474;2023-06-22T07:22:13;15.80;;;12.50;;
13897;SDS011;7019;50.766;4.474;2023-06-22T07:24:40;15.93;;;12.97;;
13897;SDS011;7019;50.766;4.474;2023-06-22T07:27:09;13.97;;;11.77;;
13897;SDS011;7019;50.766;4.474;2023-06-22T07:29:37;16.00;;;12.10;;
13897;SDS011;7019;50.766;4.474;2023-06-22T07:32:07;13.47;;;10.83;;
13897;SDS011;7019;50.766;4.474;2023-06-22T07:34:34;14.93;;;11.17;;
13897;SDS011;7019;50.766;4.474;2023-06-22T07:37:01;14.23;;;10.53;;
13897;SDS011;7019;50.766;4.474;2023-06-22T07:39:29;13.57;;;9.70;;
13897;SDS011;7019;50.766;4.474;2023-06-22T07:41:56;12.40;;;9.67;;
13897;SDS011;7019;50.766;4.474;2023-06-22T07:44:25;11.83;;;9.57;;
13897;SDS011;7019;50.766;4.474;2023-06-22T07:46:52;12.87;;;9.60;;
13897;SDS011;7019;50.766;4.474;2023-06-22T07:49:19;10.83;;;9.23;;
13897;SDS011;7019;50.766;4.474;2023-06-22T07:51:46;15.00;;;10.27;;
13897;SDS011;7019;50.766;4.474;2023-06-22T07:54:13;13.30;;;9.27;;
13897;SDS011;7019;50.766;4.474;2023-06-22T07:56:41;13.27;;;9.70;;
13897;SDS011;7019;50.766;4.474;2023-06-22T07:59:08;12.47;;;8.50;;
13897;SDS011;7019;50.766;4.474;2023-06-22T08:01:37;12.03;;;8.50;;
13897;SDS011;7019;50.766;4.474;2023-06-22T08:04:04;10.67;;;8.37;;
13897;SDS011;7019;50.766;4.474;2023-06-22T08:06:31;11.57;;;9.67;;
13897;SDS011;7019;50.766;4.474;2023-06-22T08:08:58;12.17;;;8.33;;
13897;SDS011;7019;50.766;4.474;2023-06-22T08:11:25;10.70;;;9.30;;
13897;SDS011;7019;50.766;4.474;2023-06-22T08:13:53;13.70;;;8.73;;
13897;SDS011;7019;50.766;4.474;2023-06-22T08:16:23;11.90;;;9.93;;
13897;SDS011;7019;50.766;4.474;2023-06-22T08:18:51;15.30;;;9.77;;
13897;SDS011;7019;50.766;4.474;2023-06-22T08:21:18;12.60;;;8.97;;
13897;SDS011;7019;50.766;4.474;2023-06-22T08:23:45;13.57;;;9.10;;
13897;SDS011;7019;50.766;4.474;2023-06-22T08:26:13;13.13;;;9.27;;
13897;SDS011;7019;50.766;4.474;2023-06-22T08:28:40;12.97;;;9.37;;
13897;SDS011;7019;50.766;4.474;2023-06-22T08:31:07;10.53;;;8.87;;
13897;SDS011;7019;50.766;4.474;2023-06-22T08:33:35;11.97;;;9.57;;
13897;SDS011;7019;50.766;4.474;2023-06-22T08:36:04;10.73;;;9.13;;
13897;SDS011;7019;50.766;4.474;2023-06-22T08:38:33;10.60;;;9.10;;
13897;SDS011;7019;50.766;4.474;2023-06-22T08:41:00;10.87;;;9.77;;
13897;SDS011;7019;50.766;4.474;2023-06-22T08:43:28;10.90;;;9.70;;
13897;SDS011;7019;50.766;4.474;2023-06-22T08:45:55;11.20;;;9.40;;
13897;SDS011;7019;50.766;4.474;2023-06-22T08:48:22;10.83;;;8.10;;
13897;SDS011;7019;50.766;4.474;2023-06-22T08:50:49;12.77;;;9.47;;
13897;SDS011;7019;50.766;4.474;2023-06-22T08:53:17;10.33;;;9.10;;
13897;SDS011;7019;50.766;4.474;2023-06-22T08:55:44;10.87;;;9.30;;
13897;SDS011;7019;50.766;4.474;2023-06-22T08:58:11;12.63;;;8.83;;
13897;SDS011;7019;50.766;4.474;2023-06-22T09:00:38;9.77;;;8.73;;
13897;SDS011;7019;50.766;4.474;2023-06-22T09:03:06;10.40;;;8.60;;
13897;SDS011;7019;50.766;4.474;2023-06-22T09:05:33;11.97;;;9.33;;
13897;SDS011;7019;50.766;4.474;2023-06-22T09:08:00;9.73;;;8.67;;
13897;SDS011;7019;50.766;4.474;2023-06-22T09:10:28;11.63;;;9.73;;
13897;SDS011;7019;50.766;4.474;2023-06-22T09:12:56;11.27;;;8.87;;
13897;SDS011;7019;50.766;4.474;2023-06-22T09:15:24;9.50;;;8.47;;
13897;SDS011;7019;50.766;4.474;2023-06-22T09:17:51;13.23;;;9.37;;
13897;SDS011;7019;50.766;4.474;2023-06-22T09:20:19;10.77;;;8.93;;
13897;SDS011;7019;50.766;4.474;2023-06-22T09:22:46;9.80;;;8.80;;
13897;SDS011;7019;50.766;4.474;2023-06-22T09:25:14;13.87;;;8.80;;
13897;SDS011;7019;50.766;4.474;2023-06-22T09:27:42;12.77;;;10.67;;
13897;SDS011;7019;50.766;4.474;2023-06-22T09:30:10;10.60;;;9.50;;
13897;SDS011;7019;50.766;4.474;2023-06-22T09:32:37;11.13;;;9.70;;
13897;SDS011;7019;50.766;4.474;2023-06-22T09:35:05;12.77;;;9.63;;
13897;SDS011;7019;50.766;4.474;2023-06-22T09:37:33;11.63;;;8.53;;
13897;SDS011;7019;50.766;4.474;2023-06-22T09:40:00;11.73;;;10.40;;
13897;SDS011;7019;50.766;4.474;2023-06-22T09:42:33;12.10;;;9.17;;
13897;SDS011;7019;50.766;4.474;2023-06-22T09:45:02;15.53;;;12.10;;
13897;SDS011;7019;50.766;4.474;2023-06-22T09:47:29;16.73;;;11.53;;
13897;SDS011;7019;50.766;4.474;2023-06-22T09:49:56;13.33;;;11.93;;
13897;SDS011;7019;50.766;4.474;2023-06-22T09:52:24;13.80;;;9.40;;
13897;SDS011;7019;50.766;4.474;2023-06-22T09:54:51;13.17;;;10.73;;
13897;SDS011;7019;50.766;4.474;2023-06-22T09:57:19;12.40;;;10.80;;
13897;SDS011;7019;50.766;4.474;2023-06-22T09:59:46;15.03;;;10.80;;
13897;SDS011;7019;50.766;4.474;2023-06-22T10:02:14;14.93;;;10.77;;
13897;SDS011;7019;50.766;4.474;2023-06-22T10:04:42;12.23;;;9.77;;
13897;SDS011;7019;50.766;4.474;2023-06-22T10:07:09;14.53;;;13.03;;
13897;SDS011;7019;50.766;4.474;2023-06-22T10:09:37;13.33;;;11.93;;
13897;SDS011;7019;50.766;4.474;2023-06-22T10:12:05;13.20;;;10.57;;
13897;SDS011;7019;50.766;4.474;2023-06-22T10:14:32;13.20;;;11.00;;
13897;SDS011;7019;50.766;4.474;2023-06-22T10:17:00;12.70;;;11.30;;
13897;SDS011;7019;50.766;4.474;2023-06-22T10:19:30;12.80;;;10.27;;
13897;SDS011;7019;50.766;4.474;2023-06-22T10:21:57;13.27;;;10.70;;
13897;SDS011;7019;50.766;4.474;2023-06-22T10:24:30;12.13;;;10.07;;
13897;SDS011;7019;50.766;4.474;2023-06-22T10:27:00;13.73;;;10.00;;
13897;SDS011;7019;50.766;4.474;2023-06-22T10:29:27;13.10;;;10.10;;
13897;SDS011;7019;50.766;4.474;2023-06-22T10:31:54;11.57;;;9.83;;
13897;SDS011;7019;50.766;4.474;2023-06-22T10:34:22;16.57;;;11.27;;
13897;SDS011;7019;50.766;4.474;2023-06-22T10:36:50;14.03;;;11.20;;
13897;SDS011;7019;50.766;4.474;2023-06-22T10:39:17;12.77;;;10.67;;
13897;SDS011;7019;50.766;4.474;2023-06-22T10:41:44;12.00;;;10.10;;
13897;SDS011;7019;50.766;4.474;2023-06-22T10:44:11;13.30;;;12.00;;
13897;SDS011;7019;50.766;4.474;2023-06-22T10:46:38;13.67;;;12.10;;
13897;SDS011;7019;50.766;4.474;2023-06-22T10:49:06;15.97;;;14.03;;
13897;SDS011;7019;50.766;4.474;2023-06-22T10:51:33;17.07;;;15.30;;
13897;SDS011;7019;50.766;4.474;2023-06-22T10:54:01;16.80;;;14.87;;
13897;SDS011;7019;50.766;4.474;2023-06-22T10:56:29;19.80;;;14.90;;
13897;SDS011;7019;50.766;4.474;2023-06-22T10:58:58;20.20;;;17.03;;
13897;SDS011;7019;50.766;4.474;2023-06-22T11:01:26;19.63;;;16.97;;
13897;SDS011;7019;50.766;4.474;2023-06-22T11:03:56;19.57;;;17.30;;
13897;SDS011;7019;50.766;4.474;2023-06-22T11:06:23;23.97;;;17.77;;
13897;SDS011;7019;50.766;4.474;2023-06-22T11:08:50;21.03;;;17.67;;
13897;SDS011;7019;50.766;4.474;2023-06-22T11:11:19;22.97;;;18.57;;
13897;SDS011;7019;50.766;4.474;2023-06-22T11:13:46;20.77;;;17.37;;
13897;SDS011;7019;50.766;4.474;2023-06-22T11:16:13;21.43;;;18.00;;
13897;SDS011;7019;50.766;4.474;2023-06-22T11:18:41;19.83;;;17.73;;
13897;SDS011;7019;50.766;4.474;2023-06-22T11:21:08;21.23;;;18.53;;
13897;SDS011;7019;50.766;4.474;2023-06-22T11:23:35;21.50;;;16.77;;
13897;SDS011;7019;50.766;4.474;2023-06-22T11:26:02;21.07;;;18.40;;
13897;SDS011;7019;50.766;4.474;2023-06-22T11:28:30;20.53;;;18.33;;
13897;SDS011;7019;50.766;4.474;2023-06-22T11:30:58;21.27;;;17.00;;
13897;SDS011;7019;50.766;4.474;2023-06-22T11:33:25;21.50;;;16.97;;
13897;SDS011;7019;50.766;4.474;2023-06-22T11:35:52;20.53;;;18.33;;
13897;SDS011;7019;50.766;4.474;2023-06-22T11:38:21;22.70;;;19.70;;
13897;SDS011;7019;50.766;4.474;2023-06-22T11:40:48;24.33;;;21.00;;
13897;SDS011;7019;50.766;4.474;2023-06-22T11:43:15;22.17;;;19.70;;
13897;SDS011;7019;50.766;4.474;2023-06-22T11:45:44;23.27;;;20.07;;
13897;SDS011;7019;50.766;4.474;2023-06-22T11:48:11;26.53;;;20.67;;
13897;SDS011;7019;50.766;4.474;2023-06-22T11:50:38;27.90;;;21.00;;
13897;SDS011;7019;50.766;4.474;2023-06-22T11:53:05;25.27;;;21.33;;
13897;SDS011;7019;50.766;4.474;2023-06-22T11:55:32;24.47;;;20.97;;
13897;SDS011;7019;50.766;4.474;2023-06-22T11:57:59;26.80;;;23.27;;
13897;SDS011;7019;50.766;4.474;2023-06-22T12:00:28;27.57;;;22.97;;
13897;SDS011;7019;50.766;4.474;2023-06-22T12:02:57;25.80;;;22.10;;
13897;SDS011;7019;50.766;4.474;2023-06-22T12:05:23;26.40;;;22.87;;
13897;SDS011;7019;50.766;4.474;2023-06-22T12:07:52;27.87;;;23.60;;
13897;SDS011;7019;50.766;4.474;2023-06-22T12:10:20;34.10;;;26.60;;
13897;SDS011;7019;50.766;4.474;2023-06-22T12:12:47;28.40;;;24.37;;
13897;SDS011;7019;50.766;4.474;2023-06-22T12:15:15;26.80;;;23.00;;
13897;SDS011;7019;50.766;4.474;2023-06-22T12:17:42;28.30;;;23.47;;
13897;SDS011;7019;50.766;4.474;2023-06-22T12:20:11;29.13;;;24.50;;
13897;SDS011;7019;50.766;4.474;2023-06-22T12:22:38;29.13;;;24.33;;
13897;SDS011;7019;50.766;4.474;2023-06-22T12:25:05;26.90;;;23.73;;
13897;SDS011;7019;50.766;4.474;2023-06-22T12:27:33;28.33;;;22.10;;
13897;SDS011;7019;50.766;4.474;2023-06-22T12:30:00;29.23;;;23.67;;
13897;SDS011;7019;50.766;4.474;2023-06-22T12:32:28;28.70;;;22.50;;
13897;SDS011;7019;50.766;4.474;2023-06-22T12:34:55;27.80;;;23.33;;
13897;SDS011;7019;50.766;4.474;2023-06-22T12:37:23;28.50;;;23.70;;
13897;SDS011;7019;50.766;4.474;2023-06-22T12:39:50;29.17;;;23.57;;
13897;SDS011;7019;50.766;4.474;2023-06-22T12:42:17;29.03;;;23.47;;
13897;SDS011;7019;50.766;4.474;2023-06-22T12:44:46;30.17;;;23.43;;
13897;SDS011;7019;50.766;4.474;2023-06-22T12:47:13;35.30;;;25.50;;
13897;SDS011;7019;50.766;4.474;2023-06-22T12:49:40;30.50;;;24.57;;
13897;SDS011;7019;50.766;4.474;2023-06-22T12:52:10;29.13;;;24.13;;
13897;SDS011;7019;50.766;4.474;2023-06-22T12:54:38;31.20;;;25.23;;
13897;SDS011;7019;50.766;4.474;2023-06-22T12:57:06;29.93;;;24.63;;
13897;SDS011;7019;50.766;4.474;2023-06-22T12:59:33;31.70;;;26.57;;
13897;SDS011;7019;50.766;4.474;2023-06-22T13:02:00;29.27;;;25.50;;
13897;SDS011;7019;50.766;4.474;2023-06-22T13:04:27;32.87;;;25.43;;
13897;SDS011;7019;50.766;4.474;2023-06-22T13:06:54;31.90;;;25.70;;
13897;SDS011;7019;50.766;4.474;2023-06-22T13:09:21;31.77;;;26.80;;
13897;SDS011;7019;50.766;4.474;2023-06-22T13:11:49;31.43;;;26.10;;
13897;SDS011;7019;50.766;4.474;2023-06-22T13:14:17;32.13;;;26.53;;
13897;SDS011;7019;50.766;4.474;2023-06-22T13:16:44;33.50;;;26.47;;
13897;SDS011;7019;50.766;4.474;2023-06-22T13:19:11;33.30;;;26.07;;
13897;SDS011;7019;50.766;4.474;2023-06-22T13:21:39;30.57;;;26.70;;
13897;SDS011;7019;50.766;4.474;2023-06-22T13:24:07;32.27;;;26.63;;
13897;SDS011;7019;50.766;4.474;2023-06-22T13:26:34;33.67;;;28.07;;
13897;SDS011;7019;50.766;4.474;2023-06-22T13:29:02;37.30;;;29.93;;
13897;SDS011;7019;50.766;4.474;2023-06-22T13:31:29;32.67;;;28.30;;
13897;SDS011;7019;50.766;4.474;2023-06-22T13:33:56;34.07;;;28.30;;
13897;SDS011;7019;50.766;4.474;2023-06-22T13:36:23;36.40;;;30.83;;
13897;SDS011;7019;50.766;4.474;2023-06-22T13:38:50;35.23;;;28.20;;
13897;SDS011;7019;50.766;4.474;2023-06-22T13:41:17;34.63;;;29.10;;
13897;SDS011;7019;50.766;4.474;2023-06-22T13:43:44;37.87;;;29.50;;
13897;SDS011;7019;50.766;4.474;2023-06-22T13:46:13;37.33;;;28.80;;
13897;SDS011;7019;50.766;4.474;2023-06-22T13:48:40;37.97;;;30.10;;
13897;SDS011;7019;50.766;4.474;2023-06-22T13:51:07;34.03;;;28.83;;
13897;SDS011;7019;50.766;4.474;2023-06-22T13:53:34;38.20;;;29.70;;
13897;SDS011;7019;50.766;4.474;2023-06-22T13:56:02;34.07;;;28.07;;
13897;SDS011;7019;50.766;4.474;2023-06-22T13:58:29;35.40;;;29.77;;
13897;SDS011;7019;50.766;4.474;2023-06-22T14:00:56;38.93;;;29.27;;
13897;SDS011;7019;50.766;4.474;2023-06-22T14:03:25;36.10;;;28.30;;
13897;SDS011;7019;50.766;4.474;2023-06-22T14:05:52;32.57;;;27.57;;
13897;SDS011;7019;50.766;4.474;2023-06-22T14:08:21;33.63;;;26.50;;
13897;SDS011;7019;50.766;4.474;2023-06-22T14:10:50;32.10;;;26.63;;
13897;SDS011;7019;50.766;4.474;2023-06-22T14:13:18;36.93;;;27.03;;
13897;SDS011;7019;50.766;4.474;2023-06-22T14:15:46;35.30;;;27.17;;
13897;SDS011;7019;50.766;4.474;2023-06-22T14:18:14;34.03;;;27.47;;
13897;SDS011;7019;50.766;4.474;2023-06-22T14:20:43;33.13;;;27.87;;
13897;SDS011;7019;50.766;4.474;2023-06-22T14:23:10;32.93;;;28.13;;
13897;SDS011;7019;50.766;4.474;2023-06-22T14:25:37;29.63;;;26.33;;
13897;SDS011;7019;50.766;4.474;2023-06-22T14:28:05;30.23;;;25.97;;
13897;SDS011;7019;50.766;4.474;2023-06-22T14:30:32;34.60;;;28.53;;
13897;SDS011;7019;50.766;4.474;2023-06-22T14:32:59;36.20;;;28.77;;
13897;SDS011;7019;50.766;4.474;2023-06-22T14:35:26;32.60;;;28.33;;
13897;SDS011;7019;50.766;4.474;2023-06-22T14:37:54;31.93;;;26.90;;
13897;SDS011;7019;50.766;4.474;2023-06-22T14:40:21;32.93;;;28.53;;
13897;SDS011;7019;50.766;4.474;2023-06-22T14:42:48;32.23;;;28.00;;
13897;SDS011;7019;50.766;4.474;2023-06-22T14:45:15;35.90;;;27.23;;
13897;SDS011;7019;50.766;4.474;2023-06-22T14:47:42;32.07;;;28.27;;
13897;SDS011;7019;50.766;4.474;2023-06-22T14:50:09;35.13;;;29.67;;